CheckWX is a tool to help pilots better visualize weather data.  It is not intended as a substitute for an official pre-flight weather briefing.

13:49:26 UTC

EDFM METAR
Mannheim City Airport
Mannheim, Germany
Current

29 mins ago

EDFM 201320Z 20010KT 160V240 CAVOK 31/14 Q1012
Observed
Jul-20 @ 13:20 UTC
Wind
  • 200° at 10 KTS
Visibility
10,000+ meters
Flight Rules
VFR
Cloud Levels
  • Clear skies
Temperature
31°C / 88°F
Dewpoint
14°C / 57°F
Humidity
35%
Altimeter
29.88" Hg
Pressure
1011.92 hPa
Previous

59 mins ago

EDFM 201250Z 17011KT 140V200 CAVOK 30/15 Q1012
Observed
Jul-20 @ 12:50 UTC
Wind
  • 170° at 11 KTS
Visibility
10,000+ meters
Flight Rules
VFR
Cloud Levels
  • Clear skies
Temperature
30°C / 86°F
Dewpoint
15°C / 59°F
Heat Index
29°C / 85°F
Humidity
40%
Altimeter
29.88" Hg
Pressure
1011.92 hPa
Previous

1 hour ago

EDFM 201220Z 19009KT 160V220 CAVOK 30/16 Q1012
Observed
Jul-20 @ 12:20 UTC
Wind
  • 190° at 9 KTS
Visibility
10,000+ meters
Flight Rules
VFR
Cloud Levels
  • Clear skies
Temperature
30°C / 86°F
Dewpoint
16°C / 61°F
Heat Index
30°C / 86°F
Humidity
43%
Altimeter
29.88" Hg
Pressure
1011.92 hPa